Flight Track Log - Related Links

Times and Time Zones

All times are in EDT time to prevent confusion due to time zone crossing. See the UAL33 flight status page for this flight to view local times or setup timezone preferences in your user account.

Time Position Orientation Groundspeed Altitude Reporting Facility
EDT Latitude Longitude Course Direction KTS MPH feet Rate Location/Type
Wed 04:44:09 AM 35.6648 140.4476 148° Southeast 229 264 4,000  Level FlightAware ADS-B
Wed 04:44:29 AM 35.6461 140.4610 150° Southeast 248 285 4,700 2,286 Climbing FlightAware ADS-B
Wed 04:44:51 AM 35.6242 140.4767 149° Southeast 259 298 5,600 1,967 Climbing FlightAware ADS-B
Wed 04:45:30 AM 35.5818 140.5071 148° Southeast 270 311 6,700 1,200 Climbing FlightAware ADS-B
Wed 04:45:51 AM 35.5623 140.5281 126° Southeast 276 318 6,800 100 Climbing FlightAware ADS-B
Wed 04:46:30 AM 35.5482 140.5901 97° East 282 325 6,800  Level FlightAware ADS-B
Wed 04:46:49 AM 35.5448 140.6207 98° East 283 326 6,800  Level FlightAware ADS-B
Wed 04:47:30 AM 35.5380 140.6842 98° East 280 322 6,800  Level FlightAware ADS-B
Wed 04:47:50 AM 35.5345 140.7158 98° East 280 322 6,800  Level FlightAware ADS-B
Wed 04:48:10 AM 35.5309 140.7481 98° East 279 321 6,800  Level FlightAware ADS-B
Wed 04:48:30 AM 35.5275 140.7792 98° East 280 322 6,800  Level FlightAware ADS-B
Wed 04:48:49 AM 35.5243 140.8077 98° East 279 321 6,800 600 Level FlightAware ADS-B
Wed 04:49:10 AM 35.5207 140.8404 98° East 281 323 7,200 1,902 Climbing FlightAware ADS-B
Wed 04:49:30 AM 35.5171 140.8721 98° East 284 327 8,100 2,700 Climbing FlightAware ADS-B
Wed 04:49:50 AM 35.5141 140.9057 90° East 289 333 9,000 2,051 Climbing FlightAware ADS-B
Wed 04:50:49 AM 35.5278 141.0063 79° East 339 390 10,800 1,980 Climbing FlightAware ADS-B
Wed 04:51:30 AM 35.5406 141.0877 79° East 363 418 12,300 2,550 Climbing FlightAware ADS-B
Wed 04:52:09 AM 35.5527 141.1660 79° East 372 428 14,200 2,658 Climbing FlightAware ADS-B
Wed 04:52:49 AM 35.5664 141.2527 80° East 389 448 15,800 2,222 Climbing FlightAware ADS-B
Wed 04:53:30 AM 35.5804 141.3435 81° East 409 471 17,200 2,049 Climbing FlightAware ADS-B
Wed 04:54:11 AM 35.5949 141.4368 79° East 425 489 18,600 2,154 Climbing FlightAware ADS-B
Wed 04:54:48 AM 35.6087 141.5276 80° East 438 504 20,000 2,167 Climbing FlightAware ADS-B
Wed 04:55:23 AM 35.6216 141.6131 80° East 448 516 21,200 1,941 Climbing FlightAware ADS-B
Wed 04:56:30 AM 35.6471 141.7824 79° East 468 539 23,300 1,682 Climbing FlightAware ADS-B
Wed 04:57:10 AM 35.6640 141.8933 81° East 486 559 24,200 1,481 Climbing FlightAware ADS-B
Wed 04:57:47 AM 35.6792 141.9943 80° East 497 572 25,200 99 Climbing FlightAware ADS-B
Wed 05:00:00 AM 35.8587 142.3343 57° Northeast  Level Estimated
Wed 05:01:00 AM 35.8500 142.5222 90° East  Level FlightAware Approximate
Wed 05:02:00 AM 35.8500 142.7054 90° East  Level FlightAware Approximate
Wed 05:03:00 AM 35.8654 142.8874 83° East  Level FlightAware Approximate
Wed 05:04:00 AM 35.8669 143.0705 90° East  Level FlightAware Approximate
Wed 05:05:00 AM 35.8669 143.2538 90° East  Level FlightAware Approximate
Wed 05:06:00 AM 35.8675 143.4370 87° East  Level FlightAware Approximate
Wed 05:07:00 AM 35.8753 143.6199 87° East  Level FlightAware Approximate
Wed 05:08:00 AM 35.8828 143.8030 87° East  Level FlightAware Approximate
Wed 05:09:00 AM 35.9056 143.9830 77° East  Level FlightAware Approximate
Wed 05:10:00 AM 35.9396 144.1615 77° East  Level FlightAware Approximate
Wed 05:11:00 AM 35.9705 144.3409 78° East  Level FlightAware Approximate
Wed 05:12:00 AM 35.9999 144.5208 79° East  Level FlightAware Approximate
Wed 05:13:00 AM 36.0291 144.7008 79° East  Level FlightAware Approximate
Wed 05:14:00 AM 36.0580 144.8809 79° East  Level FlightAware Approximate
Wed 05:15:00 AM 36.0867 145.0611 79° East  Level FlightAware Approximate
Wed 05:16:00 AM 36.1150 145.2415 79° East  Level FlightAware Approximate
Wed 05:17:00 AM 36.1431 145.4220 79° East  Level FlightAware Approximate
Wed 05:18:00 AM 36.1830 145.5986 73° East  Level FlightAware Approximate
Wed 05:19:00 AM 36.2341 145.7709 68° East  Level FlightAware Approximate
Wed 05:20:00 AM 36.2896 145.9413 68° East  Level FlightAware Approximate
Wed 05:21:00 AM 36.3448 146.1120 68° East  Level FlightAware Approximate
Wed 05:22:00 AM 36.3999 146.2829 68° East  Level FlightAware Approximate
Wed 05:23:00 AM 36.4408 146.4599 74° East  Level FlightAware Approximate
Wed 05:24:00 AM 36.4814 146.6371 74° East  Level FlightAware Approximate
Wed 05:25:00 AM 36.5218 146.8145 74° East  Level FlightAware Approximate
Wed 05:26:00 AM 36.5620 146.9921 74° East  Level FlightAware Approximate
Wed 05:27:00 AM 36.6018 147.1699 74° East  Level FlightAware Approximate
Wed 05:28:00 AM 36.6414 147.3479 74° East  Level FlightAware Approximate
Wed 05:29:00 AM 36.6807 147.5260 75° East  Level FlightAware Approximate
Wed 05:30:00 AM 36.7198 147.7043 75° East  Level FlightAware Approximate
Wed 05:31:00 AM 36.7586 147.8828 75° East  Level FlightAware Approximate
Wed 05:32:00 AM 36.7971 148.0615 75° East  Level FlightAware Approximate
Wed 05:33:00 AM 36.8354 148.2404 75° East  Level FlightAware Approximate
Wed 05:34:00 AM 36.8733 148.4194 75° East  Level FlightAware Approximate
Wed 05:35:00 AM 36.8945 148.6024 84° East  Level FlightAware Approximate
Wed 05:36:00 AM 36.9094 148.7868 84° East  Level FlightAware Approximate
Wed 05:37:00 AM 36.9239 148.9713 84° East  Level FlightAware Approximate
Wed 05:38:00 AM 36.9383 149.1558 84° East  Level FlightAware Approximate
Wed 05:39:00 AM 36.9523 149.3404 85° East  Level FlightAware Approximate
Wed 05:40:00 AM 36.9660 149.5251 85° East  Level FlightAware Approximate
Wed 05:41:00 AM 36.9795 149.7102 85° East  Level FlightAware Approximate
Wed 05:42:00 AM 36.9927 149.8953 85° East  Level FlightAware Approximate
Wed 05:43:00 AM 37.0111 150.0797 80° East  Level FlightAware Approximate
Wed 05:44:00 AM 37.0363 150.2629 80° East  Level FlightAware Approximate
Wed 05:45:00 AM 37.0613 150.4463 80° East  Level FlightAware Approximate
Wed 05:46:00 AM 37.0860 150.6298 80° East  Level FlightAware Approximate
Wed 05:47:00 AM 37.1104 150.8135 80° East  Level FlightAware Approximate
Wed 05:48:00 AM 37.1345 150.9972 81° East  Level FlightAware Approximate
Wed 05:49:00 AM 37.1583 151.1811 81° East  Level FlightAware Approximate
Wed 05:50:00 AM 37.1819 151.3651 81° East  Level FlightAware Approximate
Wed 05:51:00 AM 37.2052 151.5492 81° East  Level FlightAware Approximate
Wed 05:52:00 AM 37.2281 151.7334 81° East  Level FlightAware Approximate
Wed 05:53:00 AM 37.2508 151.9177 81° East  Level FlightAware Approximate
Wed 05:54:00 AM 37.2733 152.1021 81° East  Level FlightAware Approximate
Wed 05:55:00 AM 37.2954 152.2867 81° East  Level FlightAware Approximate
Wed 05:56:00 AM 37.3172 152.4713 81° East  Level FlightAware Approximate
Wed 05:57:00 AM 37.3399 152.6558 81° East  Level FlightAware Approximate
Wed 05:58:00 AM 37.3622 152.8405 81° East  Level FlightAware Approximate
Wed 05:59:00 AM 37.3843 153.0253 81° East  Level FlightAware Approximate
Wed 06:00:00 AM 37.4061 153.2101 82° East  Level FlightAware Approximate
Wed 06:01:00 AM 37.4276 153.3951 82° East  Level FlightAware Approximate
Wed 06:02:00 AM 37.4488 153.5802 82° East  Level FlightAware Approximate
Wed 06:03:00 AM 37.4697 153.7654 82° East  Level FlightAware Approximate
Wed 06:04:00 AM 37.4903 153.9507 82° East  Level FlightAware Approximate
Wed 06:05:00 AM 37.5107 154.1361 82° East  Level FlightAware Approximate
Wed 06:06:00 AM 37.5307 154.3216 82° East  Level FlightAware Approximate
Wed 06:07:00 AM 37.5505 154.5072 82° East  Level FlightAware Approximate
Wed 06:08:00 AM 37.5699 154.6929 82° East  Level FlightAware Approximate
Wed 06:09:00 AM 37.5891 154.8787 83° East  Level FlightAware Approximate
Wed 06:10:00 AM 37.6080 155.0646 83° East  Level FlightAware Approximate
Wed 06:11:00 AM 37.6266 155.2505 83° East  Level FlightAware Approximate
Wed 06:12:00 AM 37.6449 155.4366 83° East  Level FlightAware Approximate
Wed 06:13:00 AM 37.6629 155.6228 83° East  Level FlightAware Approximate
Wed 06:14:00 AM 37.6806 155.8090 83° East  Level FlightAware Approximate
Wed 06:15:00 AM 37.6980 155.9954 83° East  Level FlightAware Approximate
Wed 06:16:00 AM 37.7152 156.1818 83° East  Level FlightAware Approximate
Wed 06:17:00 AM 37.7320 156.3683 83° East  Level FlightAware Approximate
Wed 06:18:00 AM 37.7485 156.5549 84° East  Level FlightAware Approximate
Wed 06:19:00 AM 37.7648 156.7416 84° East  Level FlightAware Approximate
Wed 06:20:00 AM 37.7807 156.9283 84° East  Level FlightAware Approximate
Wed 06:21:00 AM 37.7964 157.1152 84° East  Level FlightAware Approximate
Wed 06:22:00 AM 37.8118 157.3021 84° East  Level FlightAware Approximate
Wed 06:23:00 AM 37.8268 157.4891 84° East  Level FlightAware Approximate
Wed 06:24:00 AM 37.8416 157.6762 84° East  Level FlightAware Approximate
Wed 06:25:00 AM 37.8561 157.8633 84° East  Level FlightAware Approximate
Wed 06:26:00 AM 37.8703 158.0505 84° East  Level FlightAware Approximate
Wed 06:27:00 AM 37.8841 158.2378 85° East  Level FlightAware Approximate
Wed 06:28:00 AM 37.8977 158.4252 85° East  Level FlightAware Approximate
Wed 06:29:00 AM 37.9110 158.6126 85° East  Level FlightAware Approximate
Wed 06:30:00 AM 37.9240 158.8001 85° East  Level FlightAware Approximate
Wed 06:31:00 AM 37.9367 158.9877 85° East  Level FlightAware Approximate
Wed 06:32:00 AM 37.9491 159.1753 85° East  Level FlightAware Approximate
Wed 06:33:00 AM 37.9612 159.3623 85° East  Level FlightAware Approximate
Wed 06:34:00 AM 37.9729 159.5493 85° East  Level FlightAware Approximate
Wed 06:35:00 AM 37.9844 159.7365 85° East  Level FlightAware Approximate
Wed 06:36:00 AM 37.9955 159.9236 86° East  Level FlightAware Approximate
Wed 06:37:00 AM 38.0156 160.1094 80° East  Level FlightAware Approximate
Wed 06:38:00 AM 38.0416 160.2943 80° East  Level FlightAware Approximate
Wed 06:39:00 AM 38.0673 160.4793 80° East  Level FlightAware Approximate
Wed 06:40:00 AM 38.0928 160.6644 80° East  Level FlightAware Approximate
Wed 06:41:00 AM 38.1180 160.8497 80° East  Level FlightAware Approximate
Wed 06:42:00 AM 38.1428 161.0351 80° East  Level FlightAware Approximate
Wed 06:43:00 AM 38.1674 161.2206 80° East  Level FlightAware Approximate
Wed 06:44:00 AM 38.1917 161.4063 80° East  Level FlightAware Approximate
Wed 06:45:00 AM 38.2157 161.5920 81° East  Level FlightAware Approximate
Wed 06:46:00 AM 38.2394 161.7779 81° East  Level FlightAware Approximate
Wed 06:47:00 AM 38.2629 161.9639 81° East  Level FlightAware Approximate
Wed 06:48:00 AM 38.2860 162.1501 81° East  Level FlightAware Approximate
Wed 06:49:00 AM 38.3088 162.3363 81° East  Level FlightAware Approximate
Wed 06:50:00 AM 38.3313 162.5227 81° East  Level FlightAware Approximate
Wed 06:51:00 AM 38.3536 162.7092 81° East  Level FlightAware Approximate
Wed 06:52:00 AM 38.3755 162.8958 81° East  Level FlightAware Approximate
Wed 06:53:00 AM 38.3972 163.0825 82° East  Level FlightAware Approximate
Wed 06:54:00 AM 38.4185 163.2693 82° East  Level FlightAware Approximate
Wed 06:55:00 AM 38.4396 163.4562 82° East  Level FlightAware Approximate
Wed 06:56:00 AM 38.4603 163.6432 82° East  Level FlightAware Approximate
Wed 06:57:00 AM 38.4808 163.8304 82° East  Level FlightAware Approximate
Wed 06:58:00 AM 38.5009 164.0176 82° East  Level FlightAware Approximate
Wed 06:59:00 AM 38.5208 164.2050 82° East  Level FlightAware Approximate
Wed 07:00:00 AM 38.5404 164.3924 82° East  Level FlightAware Approximate
Wed 07:01:00 AM 38.5596 164.5800 82° East  Level FlightAware Approximate
Wed 07:02:00 AM 38.5786 164.7676 83° East  Level FlightAware Approximate
Wed 07:03:00 AM 38.5973 164.9554 83° East  Level FlightAware Approximate
Wed 07:04:00 AM 38.6157 165.1432 83° East  Level FlightAware Approximate
Wed 07:05:00 AM 38.6338 165.3312 83° East  Level FlightAware Approximate
Wed 07:06:00 AM 38.6517 165.5192 83° East  Level FlightAware Approximate
Wed 07:06:20 AM 38.8167 167.2000 84° East 569 655 37,000  Level Oakland Oceanic (ODAPS)
Wed 07:20:11 AM 39.0000 170.0000 72° East 799 919 37,000  Level Oakland Oceanic (ODAPS)
Wed 07:21:16 AM 39.0500 170.2000 72° East 583 671 37,000  Level Oakland Oceanic (ODAPS)
Wed 07:34:04 AM 39.6500 172.7333 74° East 584 672 37,000  Level Oakland Oceanic (ODAPS)
Wed 07:47:56 AM 40.2333 175.5667 76° East 587 676 37,000  Level Oakland Oceanic (ODAPS)
Wed 08:01:48 AM 40.7667 178.5333 78° East 603 694 37,000  Level Oakland Oceanic (ODAPS)
Wed 08:08:40 AM 41.0000 180.0000 72° East 595 685 37,000 282 Level Oakland Oceanic (ODAPS)
Wed 08:15:58 AM 41.3667 -178.5000 73° East 578 665 41,000 192 Climbing Oakland Oceanic (ODAPS)
Wed 08:29:32 AM 42.0000 -175.6167 75° East 578 665 41,000 -73 Level Oakland Oceanic (ODAPS)
Wed 08:43:23 AM 42.5833 -172.5833 77° East 602 693 39,000 -78 Descending Oakland Oceanic (ODAPS)
Wed 08:55:10 AM 43.0000 -170.0000 87° East 570 656 39,000  Level Oakland Oceanic (ODAPS)
Wed 08:57:17 AM 43.0167 -169.5333 87° East 564 649 39,000  Level Oakland Oceanic (ODAPS)
Wed 09:11:09 AM 43.1000 -166.4667 89° East 563 648 39,000  Level Oakland Oceanic (ODAPS)
Wed 09:25:00 AM 43.1000 -163.4833 91° East 559 643 39,000  Level Oakland Oceanic (ODAPS)
Wed 09:38:52 AM 43.0167 -160.5500 92° East 542 624 39,000  Level Oakland Oceanic (ODAPS)
Wed 09:41:34 AM 43.0000 -160.0000 94° East 545 627 39,000  Level Oakland Oceanic (ODAPS)
Wed 09:52:44 AM 42.8500 -157.7167 96° East 540 621 39,000  Level Oakland Oceanic (ODAPS)
Wed 10:06:37 AM 42.6000 -154.9333 98° East 525 604 39,000  Level Oakland Oceanic (ODAPS)
Wed 10:20:28 AM 42.3000 -152.2333 100° East 529 609 39,000  Level Oakland Oceanic (ODAPS)
Wed 10:32:05 AM 42.0000 -150.0000 94° East 526 605 39,000  Level Oakland Oceanic (ODAPS)
Wed 10:34:20 AM 41.9667 -149.5500 95° East 525 604 39,000 124 Level Oakland Oceanic (ODAPS)
Wed 10:48:12 AM 41.7833 -146.8667 96° East 524 603 41,000 72 Climbing Oakland Oceanic (ODAPS)
Wed 11:02:03 AM 41.5333 -144.1833 98° East 526 605 41,000  Level Oakland Oceanic (ODAPS)
Wed 11:15:55 AM 41.2167 -141.5167 100° East 522 601 41,000  Level Oakland Oceanic (ODAPS)
Wed 11:23:55 AM 41.0000 -140.0000 101° East 530 610 41,000  Level Oakland Oceanic (ODAPS)
Wed 11:29:47 AM 40.8167 -138.8667 102° East 533 613 41,000  Level Oakland Oceanic (ODAPS)
Wed 11:43:48 AM 40.3667 -136.2333 104° East 531 611 41,000  Level Oakland Oceanic (ODAPS)
Wed 11:57:31 AM 39.8500 -133.6500 106° East 531 611 41,000  Level Oakland Oceanic (ODAPS)
Wed 12:11:24 PM 39.2667 -131.1167 107° East 533 613 41,000  Level Oakland Oceanic (ODAPS)
Wed 12:17:37 PM 39.0000 -130.0000 102° East 530 610 41,000  Level Oakland Oceanic (ODAPS)
Wed 12:25:12 PM 38.7667 -128.6000 103° East 524 603 41,000  Level Oakland Oceanic (ODAPS)
Wed 12:31:26 PM 38.5594 -127.4811 111° Southeast 529 609 41,000  Level Oakland Center
Wed 12:32:00 PM 38.5352 -127.3544 104° East 524 603 41,000  Level FlightAware Transoceanic
Wed 12:32:28 PM 38.5242 -127.2994 104° East 529 609 41,000  Level Oakland Center
Wed 12:33:00 PM 38.5011 -127.1771 104° East 524 603 41,000  Level FlightAware Transoceanic
Wed 12:33:29 PM 38.4828 -127.0822 104° East 529 609 41,000  Level Oakland Center
Wed 12:34:00 PM 38.4667 -127.0000 111° Southeast 524 603 41,000  Level FlightAware Transoceanic
Wed 12:34:31 PM 38.4386 -126.9047 108° East 528 608 41,000  Level Oakland Center
Wed 12:35:00 PM 38.4158 -126.8324 111° Southeast 524 603 41,000  Level FlightAware Transoceanic
Wed 12:35:32 PM 38.3900 -126.7294 109° East 528 608 41,000  Level Oakland Center
Wed 12:36:00 PM 38.3646 -126.6650 111° Southeast 524 603 41,000 -98 Level FlightAware Transoceanic
Wed 12:36:33 PM 38.3433 -126.5550 109° East 527 606 40,900 -63 Descending Oakland Center
Wed 12:37:35 PM 38.2956 -126.3808 109° East 526 605 40,900 49 Level Oakland Center
Wed 12:38:36 PM 38.2408 -126.1861 110° East 526 605 41,000  Climbing Oakland Center
Wed 12:39:38 PM 38.1922 -126.0111 109° East 526 605 40,900  Descending Oakland Center
Wed 12:40:39 PM 38.1428 -125.8364 110° East 526 605 41,000  Climbing Oakland Center
Wed 12:41:40 PM 38.0942 -125.6617 109° East 526 605 40,900  Descending Oakland Center
Wed 12:42:42 PM 38.0456 -125.4875 109° East 526 605 41,000 49 Climbing Oakland Center
Wed 12:43:43 PM 37.9947 -125.3153 110° East 526 605 41,000  Level Oakland Center
Wed 12:44:45 PM 37.9453 -125.1414 110° East 526 605 41,000 -49 Level Oakland Center
Wed 12:45:46 PM 37.8961 -124.9692 110° East 526 605 40,900  Descending Oakland Center
Wed 12:51:47 PM 37.5691 -123.9270 120° Southeast 523 602 41,000 15 Climbing FlightAware ADS-B (KSAC)
Wed 12:52:29 PM 37.5211 -123.8227 120° Southeast 523 602 41,000  Level FlightAware ADS-B (KSAC)
Wed 12:53:07 PM 37.4717 -123.7152 119° Southeast 525 604 41,000  Level FlightAware ADS-B (KSAC)
Wed 12:53:48 PM 37.4210 -123.6055 120° Southeast 526 605 41,000  Level FlightAware ADS-B (KSAC)
Wed 12:54:31 PM 37.3557 -123.4650 120° Southeast 527 606 41,000  Level FlightAware ADS-B
Wed 12:55:15 PM 37.3011 -123.3480 120° Southeast 527 606 41,000  Level FlightAware ADS-B
Wed 12:55:28 PM 37.3011 -123.3477 120° Southeast 527 606 41,000  Level FlightAware ADS-B (KSAC)
Wed 12:56:08 PM 37.2500 -123.2382 120° Southeast 530 610 41,000  Level FlightAware ADS-B (KSAC)
Wed 12:57:32 PM 37.1310 -122.9850 121° Southeast 535 616 41,000  Level FlightAware ADS-B
Wed 12:58:03 PM 37.0917 -122.9020 121° Southeast 537 618 41,000  Level FlightAware ADS-B
Wed 12:58:07 PM 37.1121 -122.9451 120° Southeast 537 618 41,000  Level FlightAware ADS-B (KSAC)
Wed 12:58:36 PM 37.0497 -122.8130 121° Southeast 539 620 41,000  Level FlightAware ADS-B
Wed 12:58:47 PM 37.0654 -122.8461 120° Southeast 538 619 41,000  Level FlightAware ADS-B (KSAC)
Wed 12:59:08 PM 37.0094 -122.7280 121° Southeast 540 621 41,000  Level FlightAware ADS-B
Wed 12:59:28 PM 37.0107 -122.7310 120° Southeast 540 621 41,000  Level FlightAware ADS-B (KSAC)
Wed 12:59:39 PM 36.9698 -122.6450 121° Southeast 542 624 41,000  Level FlightAware ADS-B
Wed 01:00:09 PM 36.9306 -122.5630 121° Southeast 543 625 41,000  Level FlightAware ADS-B
Wed 01:00:44 PM 36.8862 -122.4700 121° Southeast 544 626 41,000  Level FlightAware ADS-B
Wed 01:01:18 PM 36.8733 -122.4433 120° Southeast 544 626 41,000  Level FlightAware ADS-B (KSAC)
Wed 01:01:34 PM 36.8211 -122.3350 121° Southeast 544 626 41,000  Level FlightAware ADS-B
Wed 01:01:49 PM 36.8224 -122.3373 120° Southeast 545 627 41,000  Level FlightAware ADS-B (KSAC)
Wed 01:02:07 PM 36.7791 -122.2470 121° Southeast 545 627 41,000  Level FlightAware ADS-B
Wed 01:02:29 PM 36.7843 -122.2581 120° Southeast 545 627 41,000  Level FlightAware ADS-B (KSAC)
Wed 01:02:38 PM 36.7387 -122.1640 121° Southeast 545 627 41,000  Level FlightAware ADS-B
Wed 01:04:05 PM 36.6256 -121.9310 121° Southeast 547 629 41,000  Level FlightAware ADS-B
Wed 01:04:54 PM 36.5606 -121.7970 121° Southeast 547 629 41,000  Level FlightAware ADS-B
Wed 01:05:25 PM 36.5196 -121.7140 121° Southeast 544 626 41,000  Level FlightAware ADS-B
Wed 01:06:08 PM 36.4646 -121.6020 121° Southeast 544 626 41,000  Level FlightAware ADS-B
Wed 01:07:03 PM 36.3928 -121.4560 121° Southeast 540 621 41,000  Level FlightAware ADS-B
Wed 01:07:34 PM 36.3528 -121.3750 121° Southeast 539 620 41,000  Level FlightAware ADS-B
Wed 01:08:09 PM 36.3070 -121.2830 122° Southeast 537 618 41,000  Level FlightAware ADS-B
Wed 01:08:40 PM 36.2670 -121.2020 122° Southeast 537 618 41,000  Level FlightAware ADS-B
Wed 01:09:11 PM 36.2264 -121.1210 122° Southeast 536 617 41,000  Level FlightAware ADS-B
Wed 01:09:43 PM 36.1850 -121.0380 122° Southeast 536 617 41,000  Level FlightAware ADS-B
Wed 01:12:15 PM 36.0005 -120.6822 129° Southeast 535 616 41,000 -319 Level FlightAware ADS-B (KSAC)
Wed 01:16:56 PM 35.4762 -120.0913 138° Southeast 533 613 38,700 -684 Descending FlightAware ADS-B
Wed 01:17:31 PM 35.4219 -120.0317 138° Southeast 542 624 37,400 -2,143 Descending FlightAware ADS-B
Wed 01:18:20 PM 35.3193 -119.9185 138° Southeast 545 627 35,700 -2,562 Descending FlightAware ADS-B
Wed 01:19:00 PM 35.2467 -119.8388 138° Southeast 555 639 33,600 -3,000 Descending FlightAware ADS-B
Wed 01:19:56 PM 35.1355 -119.7181 138° Southeast 555 639 30,900 -2,721 Descending FlightAware ADS-B
Wed 01:20:26 PM 35.0801 -119.6579 138° Southeast 542 624 29,700 -2,308 Descending FlightAware ADS-B
Wed 01:21:27 PM 34.9739 -119.5427 138° Southeast 521 600 27,400 -2,426 Descending FlightAware ADS-B
Wed 01:22:42 PM 34.8294 -119.3866 138° Southeast 499 574 24,200 -2,463 Descending FlightAware ADS-B
Wed 01:23:41 PM 34.7392 -119.2896 138° Southeast 424 488 21,900 -2,000 Descending FlightAware ADS-B
Wed 01:25:18 PM 34.6120 -119.1531 139° Southeast 380 437 19,000 -1,745 Descending FlightAware ADS-B
Wed 01:26:02 PM 34.5549 -119.0921 139° Southeast 371 427 17,800 -1,714 Descending FlightAware ADS-B
Wed 01:26:49 PM 34.4832 -119.0159 139° Southeast 357 411 16,400 -1,765 Descending FlightAware ADS-B
Wed 01:27:27 PM 34.4378 -118.9675 139° Southeast 354 407 15,300 -1,624 Descending FlightAware ADS-B
Wed 01:28:14 PM 34.3797 -118.9070 144° Southeast 351 404 14,100 -1,648 Descending FlightAware ADS-B
Wed 01:28:58 PM 34.3197 -118.8680 160° South 345 397 12,800 -1,096 Descending FlightAware ADS-B
Wed 01:29:58 PM 34.2338 -118.8363 163° South 332 382 12,200 -857 Descending FlightAware ADS-B
Wed 01:30:36 PM 34.1699 -118.8127 163° South 333 383 11,400 -1,357 Descending FlightAware ADS-B
Wed 01:31:22 PM 34.1032 -118.7881 163° South 326 375 10,300 -1,313 Descending FlightAware ADS-B
Wed 01:31:40 PM 34.0797 -118.7795 160° South 320 368 10,000 -533 Descending FlightAware ADS-B
Wed 01:32:07 PM 34.0466 -118.7498 128° Southeast 311 358 9,900 -133 Descending FlightAware ADS-B
Wed 01:32:25 PM 34.0381 -118.7308 112° Southeast 303 349 9,900  Level FlightAware ADS-B
Wed 01:32:45 PM 34.0323 -118.6917 97° East 278 320 9,900  Level FlightAware ADS-B
Wed 01:33:11 PM 34.0284 -118.6518 97° East 265 305 9,900 -476 Level FlightAware ADS-B
Wed 01:33:48 PM 34.0237 -118.5999 96° East 255 293 9,400 -667 Descending FlightAware ADS-B
Wed 01:34:14 PM 34.0203 -118.5638 96° East 239 275 9,200 -391 Descending FlightAware ADS-B
Wed 01:34:34 PM 34.0181 -118.5395 97° East 229 264 9,100 -787 Descending FlightAware ADS-B
Wed 01:35:15 PM 34.0133 -118.4890 97° East 220 253 8,400 -1,302 Descending FlightAware ADS-B
Wed 01:36:20 PM 34.0176 -118.4108 81° East 213 245 6,800 -1,551 Descending FlightAware ADS-B
Wed 01:36:44 PM 34.0210 -118.3826 82° East 209 241 6,100 -1,902 Descending FlightAware ADS-B
Wed 01:37:01 PM 34.0228 -118.3684 81° East 207 238 5,500 -2,143 Descending FlightAware ADS-B
Wed 01:37:26 PM 34.0271 -118.3339 81° East 204 235 4,600 -1,867 Descending FlightAware ADS-B
Wed 01:37:46 PM 34.0298 -118.3151 80° East 202 232 4,100 -1,579 Descending FlightAware ADS-B
Wed 01:38:04 PM 34.0331 -118.2922 80° East 195 224 3,600 -1,814 Descending FlightAware ADS-B
Wed 01:38:29 PM 34.0358 -118.2745 80° East 189 217 2,800 -1,696 Descending FlightAware ADS-B
Wed 01:38:50 PM 34.0383 -118.2483 103° East 194 223 2,300 -1,077 Descending FlightAware ADS-B
Wed 01:39:08 PM 34.0251 -118.2320 162° South 186 214 2,100 -279 Descending FlightAware ADS-B
Wed 01:39:33 PM 34.0020 -118.2282 191° South 186 214 2,100  Level FlightAware ADS-B
Wed 01:40:12 PM 33.9761 -118.2508 230° Southwest 173 199 2,100  Level FlightAware ADS-B
Wed 01:40:37 PM 33.9667 -118.2693 250° West 153 176 2,100 -130 Level FlightAware ADS-B
Wed 01:40:58 PM 33.9641 -118.2847 263° West 155 178 2,000 -600 Descending FlightAware ADS-B
Wed 01:41:17 PM 33.9625 -118.3000 263° West 147 169 1,700 -933 Descending FlightAware ADS-B
Wed 01:41:43 PM 33.9602 -118.3221 263° West 134 154 1,300 -783 Descending FlightAware ADS-B
Wed 01:42:03 PM 33.9591 -118.3333 263° West 132 152 1,100 -857 Descending FlightAware ADS-B
Wed 01:42:25 PM 33.9572 -118.3509 263° West 130 150 700 -679 Descending FlightAware ADS-B
Wed 01:42:56 PM 33.9548 -118.3753 264° West 124 143 500 -350 Descending FlightAware ADS-B
Wed 01:44:08 PM 33.9519 -118.4181 264° West 133 153 100 -333 Descending Los Angeles Center

Login

Don't have an account? Register now (free) for customized features, flight alerts, and more!